sensor_id;sensor_type;location;lat;lon;timestamp;P1;durP1;ratioP1;P2;durP2;ratioP2
18732;SDS011;9495;51.210;2.934;2023-04-03T00:01:17;13.50;;;7.97;;
18732;SDS011;9495;51.210;2.934;2023-04-03T00:03:48;13.17;;;7.67;;
18732;SDS011;9495;51.210;2.934;2023-04-03T00:06:18;12.20;;;8.30;;
18732;SDS011;9495;51.210;2.934;2023-04-03T00:08:47;14.63;;;8.10;;
18732;SDS011;9495;51.210;2.934;2023-04-03T00:11:15;16.93;;;8.43;;
18732;SDS011;9495;51.210;2.934;2023-04-03T00:13:44;16.00;;;8.50;;
18732;SDS011;9495;51.210;2.934;2023-04-03T00:16:13;12.50;;;8.00;;
18732;SDS011;9495;51.210;2.934;2023-04-03T00:18:41;13.23;;;8.43;;
18732;SDS011;9495;51.210;2.934;2023-04-03T00:21:12;19.47;;;8.67;;
18732;SDS011;9495;51.210;2.934;2023-04-03T00:23:42;13.80;;;8.73;;
18732;SDS011;9495;51.210;2.934;2023-04-03T00:26:10;15.00;;;9.00;;
18732;SDS011;9495;51.210;2.934;2023-04-03T00:28:39;12.80;;;8.10;;
18732;SDS011;9495;51.210;2.934;2023-04-03T00:31:07;11.60;;;8.70;;
18732;SDS011;9495;51.210;2.934;2023-04-03T00:33:36;14.67;;;9.23;;
18732;SDS011;9495;51.210;2.934;2023-04-03T00:36:05;14.83;;;9.47;;
18732;SDS011;9495;51.210;2.934;2023-04-03T00:38:37;16.53;;;9.13;;
18732;SDS011;9495;51.210;2.934;2023-04-03T00:41:05;12.93;;;9.30;;
18732;SDS011;9495;51.210;2.934;2023-04-03T00:43:34;17.00;;;9.20;;
18732;SDS011;9495;51.210;2.934;2023-04-03T00:46:02;16.53;;;9.13;;
18732;SDS011;9495;51.210;2.934;2023-04-03T00:48:31;16.77;;;10.23;;
18732;SDS011;9495;51.210;2.934;2023-04-03T00:51:03;17.43;;;9.83;;
18732;SDS011;9495;51.210;2.934;2023-04-03T00:53:34;18.13;;;10.30;;
18732;SDS011;9495;51.210;2.934;2023-04-03T00:56:08;19.33;;;10.03;;
18732;SDS011;9495;51.210;2.934;2023-04-03T00:58:41;20.20;;;11.60;;
18732;SDS011;9495;51.210;2.934;2023-04-03T01:01:13;16.83;;;11.30;;
18732;SDS011;9495;51.210;2.934;2023-04-03T01:03:46;19.97;;;11.00;;
18732;SDS011;9495;51.210;2.934;2023-04-03T01:06:14;17.57;;;11.50;;
18732;SDS011;9495;51.210;2.934;2023-04-03T01:08:48;17.27;;;10.67;;
18732;SDS011;9495;51.210;2.934;2023-04-03T01:11:18;14.80;;;10.97;;
18732;SDS011;9495;51.210;2.934;2023-04-03T01:13:47;17.13;;;11.10;;
18732;SDS011;9495;51.210;2.934;2023-04-03T01:16:16;16.37;;;11.90;;
18732;SDS011;9495;51.210;2.934;2023-04-03T01:18:45;19.50;;;11.60;;
18732;SDS011;9495;51.210;2.934;2023-04-03T01:24:37;21.97;;;12.97;;
18732;SDS011;9495;51.210;2.934;2023-04-03T01:27:06;15.40;;;11.50;;
18732;SDS011;9495;51.210;2.934;2023-04-03T01:29:36;16.70;;;11.57;;
18732;SDS011;9495;51.210;2.934;2023-04-03T01:32:07;17.60;;;11.47;;
18732;SDS011;9495;51.210;2.934;2023-04-03T01:34:36;19.40;;;12.73;;
18732;SDS011;9495;51.210;2.934;2023-04-03T01:37:04;18.57;;;13.43;;
18732;SDS011;9495;51.210;2.934;2023-04-03T01:39:33;17.17;;;12.97;;
18732;SDS011;9495;51.210;2.934;2023-04-03T01:42:02;15.00;;;12.33;;
18732;SDS011;9495;51.210;2.934;2023-04-03T01:44:30;17.77;;;12.40;;
18732;SDS011;9495;51.210;2.934;2023-04-03T01:46:59;21.33;;;12.30;;
18732;SDS011;9495;51.210;2.934;2023-04-03T01:49:29;18.70;;;12.60;;
18732;SDS011;9495;51.210;2.934;2023-04-03T01:51:57;18.10;;;13.37;;
18732;SDS011;9495;51.210;2.934;2023-04-03T01:54:26;19.40;;;12.73;;
18732;SDS011;9495;51.210;2.934;2023-04-03T01:56:54;18.07;;;13.27;;
18732;SDS011;9495;51.210;2.934;2023-04-03T01:59:23;18.73;;;13.50;;
18732;SDS011;9495;51.210;2.934;2023-04-03T02:01:51;22.00;;;13.67;;
18732;SDS011;9495;51.210;2.934;2023-04-03T02:04:20;17.40;;;12.23;;
18732;SDS011;9495;51.210;2.934;2023-04-03T02:06:50;16.80;;;12.50;;
18732;SDS011;9495;51.210;2.934;2023-04-03T02:09:19;21.07;;;12.80;;
18732;SDS011;9495;51.210;2.934;2023-04-03T02:11:47;23.37;;;13.83;;
18732;SDS011;9495;51.210;2.934;2023-04-03T02:14:16;18.90;;;13.50;;
18732;SDS011;9495;51.210;2.934;2023-04-03T02:16:44;24.97;;;14.03;;
18732;SDS011;9495;51.210;2.934;2023-04-03T02:19:13;23.60;;;14.27;;
18732;SDS011;9495;51.210;2.934;2023-04-03T02:21:41;18.53;;;13.17;;
18732;SDS011;9495;51.210;2.934;2023-04-03T02:24:11;23.17;;;14.10;;
18732;SDS011;9495;51.210;2.934;2023-04-03T02:26:40;21.97;;;15.03;;
18732;SDS011;9495;51.210;2.934;2023-04-03T02:29:08;20.50;;;15.37;;
18732;SDS011;9495;51.210;2.934;2023-04-03T02:31:37;22.67;;;15.90;;
18732;SDS011;9495;51.210;2.934;2023-04-03T02:34:05;23.23;;;15.10;;
18732;SDS011;9495;51.210;2.934;2023-04-03T02:36:34;24.57;;;15.50;;
18732;SDS011;9495;51.210;2.934;2023-04-03T02:39:03;20.13;;;14.37;;
18732;SDS011;9495;51.210;2.934;2023-04-03T02:41:32;22.87;;;15.77;;
18732;SDS011;9495;51.210;2.934;2023-04-03T02:44:02;24.10;;;16.03;;
18732;SDS011;9495;51.210;2.934;2023-04-03T02:46:31;21.13;;;15.43;;
18732;SDS011;9495;51.210;2.934;2023-04-03T02:49:00;24.63;;;15.73;;
18732;SDS011;9495;51.210;2.934;2023-04-03T02:51:29;21.83;;;16.37;;
18732;SDS011;9495;51.210;2.934;2023-04-03T02:53:57;24.20;;;16.63;;
18732;SDS011;9495;51.210;2.934;2023-04-03T02:56:26;21.30;;;15.90;;
18732;SDS011;9495;51.210;2.934;2023-04-03T02:58:56;25.47;;;17.03;;
18732;SDS011;9495;51.210;2.934;2023-04-03T03:01:25;32.13;;;18.10;;
18732;SDS011;9495;51.210;2.934;2023-04-03T03:03:58;24.53;;;18.10;;
18732;SDS011;9495;51.210;2.934;2023-04-03T03:06:27;29.67;;;19.13;;
18732;SDS011;9495;51.210;2.934;2023-04-03T03:08:55;23.70;;;17.70;;
18732;SDS011;9495;51.210;2.934;2023-04-03T03:11:24;28.17;;;19.60;;
18732;SDS011;9495;51.210;2.934;2023-04-03T03:13:53;25.13;;;17.50;;
18732;SDS011;9495;51.210;2.934;2023-04-03T03:16:22;27.50;;;19.63;;
18732;SDS011;9495;51.210;2.934;2023-04-03T03:18:51;22.77;;;18.30;;
18732;SDS011;9495;51.210;2.934;2023-04-03T03:21:20;22.10;;;18.60;;
18732;SDS011;9495;51.210;2.934;2023-04-03T03:23:48;30.37;;;20.23;;
18732;SDS011;9495;51.210;2.934;2023-04-03T03:26:17;25.60;;;18.60;;
18732;SDS011;9495;51.210;2.934;2023-04-03T03:28:46;25.60;;;19.30;;
18732;SDS011;9495;51.210;2.934;2023-04-03T03:31:14;26.23;;;19.30;;
18732;SDS011;9495;51.210;2.934;2023-04-03T03:33:44;23.87;;;18.33;;
18732;SDS011;9495;51.210;2.934;2023-04-03T03:36:12;25.27;;;17.07;;
18732;SDS011;9495;51.210;2.934;2023-04-03T03:38:41;24.67;;;16.97;;
18732;SDS011;9495;51.210;2.934;2023-04-03T03:41:10;23.83;;;15.97;;
18732;SDS011;9495;51.210;2.934;2023-04-03T03:43:38;22.30;;;16.40;;
18732;SDS011;9495;51.210;2.934;2023-04-03T03:46:06;24.73;;;16.03;;
18732;SDS011;9495;51.210;2.934;2023-04-03T03:48:35;22.80;;;15.23;;
18732;SDS011;9495;51.210;2.934;2023-04-03T03:51:05;22.40;;;15.07;;
18732;SDS011;9495;51.210;2.934;2023-04-03T03:53:34;19.67;;;14.07;;
18732;SDS011;9495;51.210;2.934;2023-04-03T03:56:03;17.13;;;14.17;;
18732;SDS011;9495;51.210;2.934;2023-04-03T03:58:32;17.67;;;12.93;;
18732;SDS011;9495;51.210;2.934;2023-04-03T04:01:01;18.60;;;13.83;;
18732;SDS011;9495;51.210;2.934;2023-04-03T04:03:30;21.43;;;14.33;;
18732;SDS011;9495;51.210;2.934;2023-04-03T04:05:58;20.33;;;14.67;;
18732;SDS011;9495;51.210;2.934;2023-04-03T04:08:29;21.37;;;14.90;;
18732;SDS011;9495;51.210;2.934;2023-04-03T04:10:57;21.43;;;15.33;;
18732;SDS011;9495;51.210;2.934;2023-04-03T04:13:26;19.93;;;15.90;;
18732;SDS011;9495;51.210;2.934;2023-04-03T04:15:54;20.87;;;16.03;;
18732;SDS011;9495;51.210;2.934;2023-04-03T04:18:23;20.97;;;16.67;;
18732;SDS011;9495;51.210;2.934;2023-04-03T04:20:51;22.97;;;16.97;;
18732;SDS011;9495;51.210;2.934;2023-04-03T04:23:20;21.10;;;17.70;;
18732;SDS011;9495;51.210;2.934;2023-04-03T04:25:50;30.23;;;18.30;;
18732;SDS011;9495;51.210;2.934;2023-04-03T04:28:18;26.53;;;17.97;;
18732;SDS011;9495;51.210;2.934;2023-04-03T04:30:47;25.77;;;16.50;;
18732;SDS011;9495;51.210;2.934;2023-04-03T04:33:15;28.80;;;17.40;;
18732;SDS011;9495;51.210;2.934;2023-04-03T04:35:44;21.53;;;15.87;;
18732;SDS011;9495;51.210;2.934;2023-04-03T04:38:15;21.83;;;15.73;;
18732;SDS011;9495;51.210;2.934;2023-04-03T04:40:44;24.60;;;15.27;;
18732;SDS011;9495;51.210;2.934;2023-04-03T04:43:13;21.23;;;15.57;;
18732;SDS011;9495;51.210;2.934;2023-04-03T04:45:42;19.37;;;15.67;;
18732;SDS011;9495;51.210;2.934;2023-04-03T04:48:11;19.33;;;15.33;;
18732;SDS011;9495;51.210;2.934;2023-04-03T04:50:40;22.77;;;14.93;;
18732;SDS011;9495;51.210;2.934;2023-04-03T04:53:08;21.87;;;15.40;;
18732;SDS011;9495;51.210;2.934;2023-04-03T04:55:36;19.77;;;15.03;;
18732;SDS011;9495;51.210;2.934;2023-04-03T04:58:05;20.03;;;15.63;;
18732;SDS011;9495;51.210;2.934;2023-04-03T05:00:35;21.47;;;15.43;;
18732;SDS011;9495;51.210;2.934;2023-04-03T05:03:03;20.80;;;15.60;;
18732;SDS011;9495;51.210;2.934;2023-04-03T05:05:32;22.33;;;15.83;;
18732;SDS011;9495;51.210;2.934;2023-04-03T05:08:02;20.27;;;15.73;;
18732;SDS011;9495;51.210;2.934;2023-04-03T05:10:31;23.17;;;15.77;;
18732;SDS011;9495;51.210;2.934;2023-04-03T05:12:59;20.67;;;15.33;;
18732;SDS011;9495;51.210;2.934;2023-04-03T05:15:28;23.00;;;15.57;;
18732;SDS011;9495;51.210;2.934;2023-04-03T05:17:58;28.63;;;16.70;;
18732;SDS011;9495;51.210;2.934;2023-04-03T05:20:27;27.33;;;15.87;;
18732;SDS011;9495;51.210;2.934;2023-04-03T05:22:55;23.87;;;14.70;;
18732;SDS011;9495;51.210;2.934;2023-04-03T05:25:24;24.30;;;16.40;;
18732;SDS011;9495;51.210;2.934;2023-04-03T05:27:52;21.77;;;15.17;;
18732;SDS011;9495;51.210;2.934;2023-04-03T05:30:21;21.67;;;15.67;;
18732;SDS011;9495;51.210;2.934;2023-04-03T05:32:50;26.20;;;16.50;;
18732;SDS011;9495;51.210;2.934;2023-04-03T05:35:19;26.53;;;17.03;;
18732;SDS011;9495;51.210;2.934;2023-04-03T05:37:48;28.13;;;16.53;;
18732;SDS011;9495;51.210;2.934;2023-04-03T05:40:17;27.93;;;16.67;;
18732;SDS011;9495;51.210;2.934;2023-04-03T05:42:46;33.57;;;17.33;;
18732;SDS011;9495;51.210;2.934;2023-04-03T05:45:14;38.97;;;18.17;;
18732;SDS011;9495;51.210;2.934;2023-04-03T05:47:43;25.03;;;17.77;;
18732;SDS011;9495;51.210;2.934;2023-04-03T05:50:12;31.00;;;16.83;;
18732;SDS011;9495;51.210;2.934;2023-04-03T05:52:42;25.50;;;16.13;;
18732;SDS011;9495;51.210;2.934;2023-04-03T05:55:13;21.97;;;15.53;;
18732;SDS011;9495;51.210;2.934;2023-04-03T05:57:41;24.50;;;15.33;;
18732;SDS011;9495;51.210;2.934;2023-04-03T06:00:12;26.27;;;16.07;;
18732;SDS011;9495;51.210;2.934;2023-04-03T06:02:41;23.33;;;15.80;;
18732;SDS011;9495;51.210;2.934;2023-04-03T06:05:10;25.03;;;16.13;;
18732;SDS011;9495;51.210;2.934;2023-04-03T06:07:39;27.70;;;16.07;;
18732;SDS011;9495;51.210;2.934;2023-04-03T06:10:11;27.77;;;15.33;;
18732;SDS011;9495;51.210;2.934;2023-04-03T06:12:39;27.40;;;15.13;;
18732;SDS011;9495;51.210;2.934;2023-04-03T06:15:08;29.37;;;16.33;;
18732;SDS011;9495;51.210;2.934;2023-04-03T06:17:38;26.00;;;15.77;;
18732;SDS011;9495;51.210;2.934;2023-04-03T06:20:07;29.87;;;15.20;;
18732;SDS011;9495;51.210;2.934;2023-04-03T06:22:36;26.67;;;15.50;;
18732;SDS011;9495;51.210;2.934;2023-04-03T06:25:07;22.73;;;14.43;;
18732;SDS011;9495;51.210;2.934;2023-04-03T06:27:35;25.67;;;14.47;;
18732;SDS011;9495;51.210;2.934;2023-04-03T06:30:05;21.50;;;14.27;;
18732;SDS011;9495;51.210;2.934;2023-04-03T06:32:34;23.67;;;14.27;;
18732;SDS011;9495;51.210;2.934;2023-04-03T06:35:03;23.67;;;14.67;;
18732;SDS011;9495;51.210;2.934;2023-04-03T06:37:33;24.20;;;14.93;;
18732;SDS011;9495;51.210;2.934;2023-04-03T06:40:01;25.70;;;15.00;;
18732;SDS011;9495;51.210;2.934;2023-04-03T06:42:32;21.40;;;14.67;;
18732;SDS011;9495;51.210;2.934;2023-04-03T06:45:00;23.53;;;15.13;;
18732;SDS011;9495;51.210;2.934;2023-04-03T06:47:29;26.77;;;14.87;;
18732;SDS011;9495;51.210;2.934;2023-04-03T06:49:58;25.07;;;15.40;;
18732;SDS011;9495;51.210;2.934;2023-04-03T06:52:26;24.43;;;15.10;;
18732;SDS011;9495;51.210;2.934;2023-04-03T06:54:55;24.70;;;13.93;;
18732;SDS011;9495;51.210;2.934;2023-04-03T06:57:24;23.13;;;13.87;;
18732;SDS011;9495;51.210;2.934;2023-04-03T06:59:54;21.60;;;12.67;;
18732;SDS011;9495;51.210;2.934;2023-04-03T07:02:22;20.03;;;12.87;;
18732;SDS011;9495;51.210;2.934;2023-04-03T07:04:51;20.63;;;11.90;;
18732;SDS011;9495;51.210;2.934;2023-04-03T07:07:19;17.40;;;11.63;;
18732;SDS011;9495;51.210;2.934;2023-04-03T07:09:48;15.07;;;10.10;;
18732;SDS011;9495;51.210;2.934;2023-04-03T07:12:17;15.83;;;10.23;;
18732;SDS011;9495;51.210;2.934;2023-04-03T07:14:46;17.53;;;10.60;;
18732;SDS011;9495;51.210;2.934;2023-04-03T07:17:16;17.10;;;10.73;;
18732;SDS011;9495;51.210;2.934;2023-04-03T07:19:45;20.20;;;10.07;;
18732;SDS011;9495;51.210;2.934;2023-04-03T07:22:13;17.20;;;10.73;;
18732;SDS011;9495;51.210;2.934;2023-04-03T07:24:42;17.83;;;10.23;;
18732;SDS011;9495;51.210;2.934;2023-04-03T07:27:11;18.20;;;9.83;;
18732;SDS011;9495;51.210;2.934;2023-04-03T07:29:40;17.27;;;10.07;;
18732;SDS011;9495;51.210;2.934;2023-04-03T07:32:09;15.93;;;9.87;;
18732;SDS011;9495;51.210;2.934;2023-04-03T07:34:39;15.60;;;9.90;;
18732;SDS011;9495;51.210;2.934;2023-04-03T07:37:08;14.00;;;9.67;;
18732;SDS011;9495;51.210;2.934;2023-04-03T07:39:37;17.23;;;9.70;;
18732;SDS011;9495;51.210;2.934;2023-04-03T07:42:05;17.67;;;9.33;;
18732;SDS011;9495;51.210;2.934;2023-04-03T07:44:34;16.63;;;10.60;;
18732;SDS011;9495;51.210;2.934;2023-04-03T07:47:03;18.57;;;10.77;;
18732;SDS011;9495;51.210;2.934;2023-04-03T07:49:32;19.27;;;10.40;;
18732;SDS011;9495;51.210;2.934;2023-04-03T07:52:05;15.80;;;9.93;;
18732;SDS011;9495;51.210;2.934;2023-04-03T07:54:35;14.10;;;10.43;;
18732;SDS011;9495;51.210;2.934;2023-04-03T07:57:04;15.77;;;10.33;;
18732;SDS011;9495;51.210;2.934;2023-04-03T07:59:33;15.70;;;9.53;;
18732;SDS011;9495;51.210;2.934;2023-04-03T08:02:02;13.63;;;9.10;;
18732;SDS011;9495;51.210;2.934;2023-04-03T08:04:31;14.27;;;10.47;;
18732;SDS011;9495;51.210;2.934;2023-04-03T08:07:00;16.37;;;11.07;;
18732;SDS011;9495;51.210;2.934;2023-04-03T08:09:30;17.63;;;11.30;;
18732;SDS011;9495;51.210;2.934;2023-04-03T08:11:59;16.03;;;10.40;;
18732;SDS011;9495;51.210;2.934;2023-04-03T08:14:27;15.20;;;9.03;;
18732;SDS011;9495;51.210;2.934;2023-04-03T08:17:00;12.80;;;9.90;;
18732;SDS011;9495;51.210;2.934;2023-04-03T08:19:31;14.60;;;9.70;;
18732;SDS011;9495;51.210;2.934;2023-04-03T08:21:59;19.70;;;10.63;;
18732;SDS011;9495;51.210;2.934;2023-04-03T08:24:30;17.03;;;10.27;;
18732;SDS011;9495;51.210;2.934;2023-04-03T08:26:59;18.13;;;10.00;;
18732;SDS011;9495;51.210;2.934;2023-04-03T08:29:28;15.37;;;9.47;;
18732;SDS011;9495;51.210;2.934;2023-04-03T08:31:59;17.97;;;8.47;;
18732;SDS011;9495;51.210;2.934;2023-04-03T08:34:27;14.20;;;7.70;;
18732;SDS011;9495;51.210;2.934;2023-04-03T08:36:56;9.37;;;6.33;;
18732;SDS011;9495;51.210;2.934;2023-04-03T08:39:24;8.73;;;6.70;;
18732;SDS011;9495;51.210;2.934;2023-04-03T08:41:54;10.37;;;7.00;;
18732;SDS011;9495;51.210;2.934;2023-04-03T08:44:25;10.57;;;7.10;;
18732;SDS011;9495;51.210;2.934;2023-04-03T08:47:07;10.90;;;6.10;;
18732;SDS011;9495;51.210;2.934;2023-04-03T08:49:42;11.03;;;7.20;;
18732;SDS011;9495;51.210;2.934;2023-04-03T08:52:15;11.17;;;7.07;;
18732;SDS011;9495;51.210;2.934;2023-04-03T08:54:50;10.37;;;7.00;;
18732;SDS011;9495;51.210;2.934;2023-04-03T08:57:23;12.00;;;7.37;;
18732;SDS011;9495;51.210;2.934;2023-04-03T08:59:57;14.43;;;7.33;;
18732;SDS011;9495;51.210;2.934;2023-04-03T09:02:30;11.33;;;6.93;;
18732;SDS011;9495;51.210;2.934;2023-04-03T09:05:01;11.00;;;6.93;;
18732;SDS011;9495;51.210;2.934;2023-04-03T09:07:35;10.93;;;7.43;;
18732;SDS011;9495;51.210;2.934;2023-04-03T09:10:13;11.50;;;7.60;;
18732;SDS011;9495;51.210;2.934;2023-04-03T09:12:44;16.40;;;8.07;;
18732;SDS011;9495;51.210;2.934;2023-04-03T09:15:18;11.90;;;8.17;;
18732;SDS011;9495;51.210;2.934;2023-04-03T09:18:04;14.37;;;8.87;;
18732;SDS011;9495;51.210;2.934;2023-04-03T09:20:41;12.17;;;8.63;;
18732;SDS011;9495;51.210;2.934;2023-04-03T09:23:15;12.80;;;8.70;;
18732;SDS011;9495;51.210;2.934;2023-04-03T09:25:48;15.33;;;8.03;;
18732;SDS011;9495;51.210;2.934;2023-04-03T09:28:22;16.40;;;8.30;;
18732;SDS011;9495;51.210;2.934;2023-04-03T09:30:52;10.30;;;7.13;;
18732;SDS011;9495;51.210;2.934;2023-04-03T09:33:21;9.60;;;6.70;;
18732;SDS011;9495;51.210;2.934;2023-04-03T09:35:50;12.77;;;7.13;;
18732;SDS011;9495;51.210;2.934;2023-04-03T09:38:19;12.70;;;6.77;;
18732;SDS011;9495;51.210;2.934;2023-04-03T09:40:49;11.13;;;7.00;;
18732;SDS011;9495;51.210;2.934;2023-04-03T09:43:31;11.53;;;7.53;;
18732;SDS011;9495;51.210;2.934;2023-04-03T09:46:16;9.47;;;7.27;;
18732;SDS011;9495;51.210;2.934;2023-04-03T09:48:51;12.63;;;6.30;;
18732;SDS011;9495;51.210;2.934;2023-04-03T09:51:34;8.70;;;6.37;;
18732;SDS011;9495;51.210;2.934;2023-04-03T09:54:20;17.50;;;6.70;;
18732;SDS011;9495;51.210;2.934;2023-04-03T09:56:53;12.67;;;7.37;;
18732;SDS011;9495;51.210;2.934;2023-04-03T09:59:25;9.10;;;7.67;;
18732;SDS011;9495;51.210;2.934;2023-04-03T10:01:58;10.10;;;7.83;;
18732;SDS011;9495;51.210;2.934;2023-04-03T10:04:36;11.33;;;7.30;;
18732;SDS011;9495;51.210;2.934;2023-04-03T10:09:56;10.10;;;5.70;;
18732;SDS011;9495;51.210;2.934;2023-04-03T10:12:25;10.57;;;5.73;;
18732;SDS011;9495;51.210;2.934;2023-04-03T10:14:56;8.73;;;4.50;;
18732;SDS011;9495;51.210;2.934;2023-04-03T10:17:28;6.07;;;3.27;;
18732;SDS011;9495;51.210;2.934;2023-04-03T10:20:07;8.70;;;4.03;;
18732;SDS011;9495;51.210;2.934;2023-04-03T10:22:52;5.73;;;3.83;;
18732;SDS011;9495;51.210;2.934;2023-04-03T10:25:30;7.00;;;2.90;;
18732;SDS011;9495;51.210;2.934;2023-04-03T10:28:05;6.83;;;2.60;;
18732;SDS011;9495;51.210;2.934;2023-04-03T10:30:42;4.20;;;2.50;;
18732;SDS011;9495;51.210;2.934;2023-04-03T10:33:20;3.53;;;2.37;;
18732;SDS011;9495;51.210;2.934;2023-04-03T10:36:07;7.43;;;3.40;;
18732;SDS011;9495;51.210;2.934;2023-04-03T10:38:45;6.73;;;2.50;;
18732;SDS011;9495;51.210;2.934;2023-04-03T10:41:24;5.23;;;2.73;;
18732;SDS011;9495;51.210;2.934;2023-04-03T10:44:04;7.40;;;2.97;;
18732;SDS011;9495;51.210;2.934;2023-04-03T10:46:41;9.37;;;3.00;;
18732;SDS011;9495;51.210;2.934;2023-04-03T10:49:16;5.87;;;2.57;;
18732;SDS011;9495;51.210;2.934;2023-04-03T10:51:55;6.53;;;3.20;;
18732;SDS011;9495;51.210;2.934;2023-04-03T10:54:32;4.43;;;2.30;;
18732;SDS011;9495;51.210;2.934;2023-04-03T10:57:04;3.63;;;1.97;;
18732;SDS011;9495;51.210;2.934;2023-04-03T10:59:40;3.47;;;1.93;;
18732;SDS011;9495;51.210;2.934;2023-04-03T11:02:14;4.23;;;1.90;;
18732;SDS011;9495;51.210;2.934;2023-04-03T11:04:52;3.73;;;1.77;;
18732;SDS011;9495;51.210;2.934;2023-04-03T11:07:25;2.87;;;1.80;;
18732;SDS011;9495;51.210;2.934;2023-04-03T11:09:59;9.03;;;2.53;;
18732;SDS011;9495;51.210;2.934;2023-04-03T11:12:33;6.70;;;2.70;;
18732;SDS011;9495;51.210;2.934;2023-04-03T11:15:11;4.70;;;2.50;;
18732;SDS011;9495;51.210;2.934;2023-04-03T11:17:43;6.20;;;2.03;;
18732;SDS011;9495;51.210;2.934;2023-04-03T11:20:17;6.07;;;2.40;;
18732;SDS011;9495;51.210;2.934;2023-04-03T11:22:48;5.17;;;2.20;;
18732;SDS011;9495;51.210;2.934;2023-04-03T11:25:21;7.13;;;2.70;;
18732;SDS011;9495;51.210;2.934;2023-04-03T11:27:54;7.57;;;2.80;;
18732;SDS011;9495;51.210;2.934;2023-04-03T11:30:25;6.67;;;2.93;;
18732;SDS011;9495;51.210;2.934;2023-04-03T11:33:04;7.23;;;2.73;;
18732;SDS011;9495;51.210;2.934;2023-04-03T11:35:45;4.13;;;2.20;;
18732;SDS011;9495;51.210;2.934;2023-04-03T11:38:17;5.23;;;2.47;;
18732;SDS011;9495;51.210;2.934;2023-04-03T11:40:50;4.17;;;2.47;;
18732;SDS011;9495;51.210;2.934;2023-04-03T11:43:21;6.37;;;2.50;;
18732;SDS011;9495;51.210;2.934;2023-04-03T11:45:53;4.27;;;2.60;;
18732;SDS011;9495;51.210;2.934;2023-04-03T12:03:35;8.90;;;2.37;;
18732;SDS011;9495;51.210;2.934;2023-04-03T12:09:33;4.50;;;2.70;;
18732;SDS011;9495;51.210;2.934;2023-04-03T12:12:32;6.53;;;2.70;;
18732;SDS011;9495;51.210;2.934;2023-04-03T12:15:12;6.77;;;2.80;;
18732;SDS011;9495;51.210;2.934;2023-04-03T12:21:18;4.53;;;2.60;;
18732;SDS011;9495;51.210;2.934;2023-04-03T12:23:57;4.70;;;2.33;;
18732;SDS011;9495;51.210;2.934;2023-04-03T12:26:30;7.97;;;3.07;;
18732;SDS011;9495;51.210;2.934;2023-04-03T12:29:14;4.37;;;2.30;;
18732;SDS011;9495;51.210;2.934;2023-04-03T12:31:47;6.13;;;2.70;;
18732;SDS011;9495;51.210;2.934;2023-04-03T12:34:35;5.37;;;2.33;;
18732;SDS011;9495;51.210;2.934;2023-04-03T12:37:19;5.23;;;2.27;;
18732;SDS011;9495;51.210;2.934;2023-04-03T12:40:02;3.73;;;2.23;;
18732;SDS011;9495;51.210;2.934;2023-04-03T12:42:41;4.70;;;2.30;;
18732;SDS011;9495;51.210;2.934;2023-04-03T12:45:37;7.33;;;2.50;;
18732;SDS011;9495;51.210;2.934;2023-04-03T12:48:12;4.90;;;2.60;;
18732;SDS011;9495;51.210;2.934;2023-04-03T12:50:43;4.13;;;2.70;;
18732;SDS011;9495;51.210;2.934;2023-04-03T12:53:15;5.67;;;2.33;;
18732;SDS011;9495;51.210;2.934;2023-04-03T12:55:49;5.73;;;2.47;;
18732;SDS011;9495;51.210;2.934;2023-04-03T12:58:22;6.97;;;2.60;;
18732;SDS011;9495;51.210;2.934;2023-04-03T13:00:59;4.53;;;2.70;;
18732;SDS011;9495;51.210;2.934;2023-04-03T13:03:29;5.90;;;2.83;;
18732;SDS011;9495;51.210;2.934;2023-04-03T13:05:59;4.87;;;2.50;;
18732;SDS011;9495;51.210;2.934;2023-04-03T13:08:29;6.37;;;2.57;;
18732;SDS011;9495;51.210;2.934;2023-04-03T13:11:00;4.90;;;2.40;;
18732;SDS011;9495;51.210;2.934;2023-04-03T13:13:31;4.10;;;2.23;;
18732;SDS011;9495;51.210;2.934;2023-04-03T13:15:59;5.13;;;2.30;;
18732;SDS011;9495;51.210;2.934;2023-04-03T13:18:37;3.97;;;2.23;;
18732;SDS011;9495;51.210;2.934;2023-04-03T13:21:07;6.30;;;2.17;;
18732;SDS011;9495;51.210;2.934;2023-04-03T13:23:42;5.90;;;2.50;;
18732;SDS011;9495;51.210;2.934;2023-04-03T13:26:14;5.60;;;2.30;;
18732;SDS011;9495;51.210;2.934;2023-04-03T13:28:44;4.10;;;2.10;;
18732;SDS011;9495;51.210;2.934;2023-04-03T13:31:18;3.30;;;2.23;;
18732;SDS011;9495;51.210;2.934;2023-04-03T13:33:54;5.40;;;2.03;;
18732;SDS011;9495;51.210;2.934;2023-04-03T13:36:26;4.20;;;1.80;;
18732;SDS011;9495;51.210;2.934;2023-04-03T13:38:59;2.97;;;1.77;;
18732;SDS011;9495;51.210;2.934;2023-04-03T13:41:32;5.63;;;2.53;;
18732;SDS011;9495;51.210;2.934;2023-04-03T13:44:15;5.77;;;1.90;;
18732;SDS011;9495;51.210;2.934;2023-04-03T13:46:55;7.03;;;2.63;;
18732;SDS011;9495;51.210;2.934;2023-04-03T13:49:29;4.63;;;1.83;;
18732;SDS011;9495;51.210;2.934;2023-04-03T13:52:00;3.23;;;1.60;;
18732;SDS011;9495;51.210;2.934;2023-04-03T13:54:34;5.10;;;1.93;;
18732;SDS011;9495;51.210;2.934;2023-04-03T13:57:11;2.93;;;1.93;;
18732;SDS011;9495;51.210;2.934;2023-04-03T13:59:42;5.67;;;1.57;;
18732;SDS011;9495;51.210;2.934;2023-04-03T14:02:15;4.53;;;1.83;;
18732;SDS011;9495;51.210;2.934;2023-04-03T14:04:56;3.57;;;1.57;;
18732;SDS011;9495;51.210;2.934;2023-04-03T14:07:28;5.83;;;1.80;;
18732;SDS011;9495;51.210;2.934;2023-04-03T14:09:57;3.23;;;1.73;;
18732;SDS011;9495;51.210;2.934;2023-04-03T14:12:29;4.43;;;1.87;;
18732;SDS011;9495;51.210;2.934;2023-04-03T14:15:01;2.37;;;1.57;;
18732;SDS011;9495;51.210;2.934;2023-04-03T14:17:30;2.50;;;1.90;;
18732;SDS011;9495;51.210;2.934;2023-04-03T14:19:59;3.17;;;1.60;;
18732;SDS011;9495;51.210;2.934;2023-04-03T14:22:29;3.30;;;1.70;;
18732;SDS011;9495;51.210;2.934;2023-04-03T14:24:59;6.03;;;1.80;;
18732;SDS011;9495;51.210;2.934;2023-04-03T14:27:31;2.13;;;1.60;;
18732;SDS011;9495;51.210;2.934;2023-04-03T14:30:02;2.40;;;1.63;;
18732;SDS011;9495;51.210;2.934;2023-04-03T14:32:32;2.40;;;1.47;;
18732;SDS011;9495;51.210;2.934;2023-04-03T14:35:01;2.80;;;1.60;;
18732;SDS011;9495;51.210;2.934;2023-04-03T14:37:30;3.53;;;1.60;;
18732;SDS011;9495;51.210;2.934;2023-04-03T14:39:59;2.37;;;1.53;;
18732;SDS011;9495;51.210;2.934;2023-04-03T14:42:32;2.30;;;1.50;;
18732;SDS011;9495;51.210;2.934;2023-04-03T14:45:02;4.97;;;1.80;;
18732;SDS011;9495;51.210;2.934;2023-04-03T14:47:33;3.30;;;1.40;;
18732;SDS011;9495;51.210;2.934;2023-04-03T14:50:11;3.17;;;1.67;;
18732;SDS011;9495;51.210;2.934;2023-04-03T14:52:41;3.30;;;1.80;;
18732;SDS011;9495;51.210;2.934;2023-04-03T14:55:11;3.73;;;1.60;;
18732;SDS011;9495;51.210;2.934;2023-04-03T14:57:43;2.00;;;1.60;;
18732;SDS011;9495;51.210;2.934;2023-04-03T15:00:12;2.50;;;1.37;;
18732;SDS011;9495;51.210;2.934;2023-04-03T15:02:42;2.37;;;1.37;;
18732;SDS011;9495;51.210;2.934;2023-04-03T15:05:12;2.60;;;1.40;;
18732;SDS011;9495;51.210;2.934;2023-04-03T15:07:43;1.63;;;1.30;;
18732;SDS011;9495;51.210;2.934;2023-04-03T15:10:16;3.10;;;1.83;;
18732;SDS011;9495;51.210;2.934;2023-04-03T15:12:47;4.50;;;1.80;;
18732;SDS011;9495;51.210;2.934;2023-04-03T15:15:17;2.57;;;1.60;;
18732;SDS011;9495;51.210;2.934;2023-04-03T15:17:47;1.77;;;1.47;;
18732;SDS011;9495;51.210;2.934;2023-04-03T15:20:21;3.93;;;1.50;;
18732;SDS011;9495;51.210;2.934;2023-04-03T15:22:50;2.93;;;1.60;;
18732;SDS011;9495;51.210;2.934;2023-04-03T15:25:19;7.27;;;1.60;;
18732;SDS011;9495;51.210;2.934;2023-04-03T15:27:49;4.93;;;1.53;;
18732;SDS011;9495;51.210;2.934;2023-04-03T15:30:18;3.83;;;1.60;;
18732;SDS011;9495;51.210;2.934;2023-04-03T15:32:48;3.47;;;1.60;;
18732;SDS011;9495;51.210;2.934;2023-04-03T15:35:17;8.40;;;1.80;;
18732;SDS011;9495;51.210;2.934;2023-04-03T15:37:45;2.63;;;1.67;;